sensor_id;sensor_type;location;lat;lon;timestamp;temperature;humidity
13211;DHT22;6670;51.53087800;7.23266500;2022-10-16T00:01:17;14.80;99.90
13211;DHT22;6670;51.53087800;7.23266500;2022-10-16T00:03:45;14.80;99.90
13211;DHT22;6670;51.53087800;7.23266500;2022-10-16T00:06:14;14.80;99.90
13211;DHT22;6670;51.53087800;7.23266500;2022-10-16T00:08:42;14.80;99.90
13211;DHT22;6670;51.53087800;7.23266500;2022-10-16T00:11:11;14.80;99.90
13211;DHT22;6670;51.53087800;7.23266500;2022-10-16T00:13:41;14.80;99.90
13211;DHT22;6670;51.53087800;7.23266500;2022-10-16T00:16:11;14.80;99.90
13211;DHT22;6670;51.53087800;7.23266500;2022-10-16T00:18:39;14.80;99.90
13211;DHT22;6670;51.53087800;7.23266500;2022-10-16T00:21:09;14.80;99.90
13211;DHT22;6670;51.53087800;7.23266500;2022-10-16T00:23:37;14.80;99.90
13211;DHT22;6670;51.53087800;7.23266500;2022-10-16T00:26:07;14.80;99.90
13211;DHT22;6670;51.53087800;7.23266500;2022-10-16T00:28:35;14.80;99.90
13211;DHT22;6670;51.53087800;7.23266500;2022-10-16T00:31:04;14.80;99.90
13211;DHT22;6670;51.53087800;7.23266500;2022-10-16T00:33:33;14.80;99.90
13211;DHT22;6670;51.53087800;7.23266500;2022-10-16T00:36:02;14.80;99.90
13211;DHT22;6670;51.53087800;7.23266500;2022-10-16T00:38:30;14.80;99.90
13211;DHT22;6670;51.53087800;7.23266500;2022-10-16T00:40:57;14.80;99.90
13211;DHT22;6670;51.53087800;7.23266500;2022-10-16T00:43:35;14.80;99.90
13211;DHT22;6670;51.53087800;7.23266500;2022-10-16T00:46:05;14.80;99.90
13211;DHT22;6670;51.53087800;7.23266500;2022-10-16T00:48:37;14.80;99.90
13211;DHT22;6670;51.53087800;7.23266500;2022-10-16T00:51:06;14.80;99.90
13211;DHT22;6670;51.53087800;7.23266500;2022-10-16T00:53:35;14.80;99.90
13211;DHT22;6670;51.53087800;7.23266500;2022-10-16T00:56:02;14.80;99.90
13211;DHT22;6670;51.53087800;7.23266500;2022-10-16T00:58:30;14.70;99.90
13211;DHT22;6670;51.53087800;7.23266500;2022-10-16T01:00:58;14.80;99.90
13211;DHT22;6670;51.53087800;7.23266500;2022-10-16T01:03:27;14.70;99.90
13211;DHT22;6670;51.53087800;7.23266500;2022-10-16T01:06:06;14.70;99.90
13211;DHT22;6670;51.53087800;7.23266500;2022-10-16T01:08:50;14.70;99.90
13211;DHT22;6670;51.53087800;7.23266500;2022-10-16T01:11:22;14.70;99.90
13211;DHT22;6670;51.53087800;7.23266500;2022-10-16T01:13:54;14.70;99.90
13211;DHT22;6670;51.53087800;7.23266500;2022-10-16T01:16:30;14.70;99.90
13211;DHT22;6670;51.53087800;7.23266500;2022-10-16T01:19:02;14.70;99.90
13211;DHT22;6670;51.53087800;7.23266500;2022-10-16T01:21:36;14.70;99.90
13211;DHT22;6670;51.53087800;7.23266500;2022-10-16T01:24:11;14.70;99.90
13211;DHT22;6670;51.53087800;7.23266500;2022-10-16T01:27:00;14.70;99.90
13211;DHT22;6670;51.53087800;7.23266500;2022-10-16T01:29:31;14.70;99.90
13211;DHT22;6670;51.53087800;7.23266500;2022-10-16T01:32:02;14.70;99.90
13211;DHT22;6670;51.53087800;7.23266500;2022-10-16T01:34:35;14.70;99.90
13211;DHT22;6670;51.53087800;7.23266500;2022-10-16T01:40:59;14.60;99.90
13211;DHT22;6670;51.53087800;7.23266500;2022-10-16T01:43:33;14.60;99.90
13211;DHT22;6670;51.53087800;7.23266500;2022-10-16T01:46:02;14.60;99.90
13211;DHT22;6670;51.53087800;7.23266500;2022-10-16T01:48:30;14.60;99.90
13211;DHT22;6670;51.53087800;7.23266500;2022-10-16T01:51:03;14.60;99.90
13211;DHT22;6670;51.53087800;7.23266500;2022-10-16T01:53:32;14.60;99.90
13211;DHT22;6670;51.53087800;7.23266500;2022-10-16T01:56:02;14.50;99.90
13211;DHT22;6670;51.53087800;7.23266500;2022-10-16T01:58:34;14.50;99.90
13211;DHT22;6670;51.53087800;7.23266500;2022-10-16T02:01:03;14.50;99.90
13211;DHT22;6670;51.53087800;7.23266500;2022-10-16T02:03:33;14.50;99.90
13211;DHT22;6670;51.53087800;7.23266500;2022-10-16T02:06:01;14.50;99.90
13211;DHT22;6670;51.53087800;7.23266500;2022-10-16T02:08:29;14.50;99.90
13211;DHT22;6670;51.53087800;7.23266500;2022-10-16T02:10:58;14.50;99.90
13211;DHT22;6670;51.53087800;7.23266500;2022-10-16T02:13:32;14.50;99.90
13211;DHT22;6670;51.53087800;7.23266500;2022-10-16T02:16:00;14.50;99.90
13211;DHT22;6670;51.53087800;7.23266500;2022-10-16T02:18:28;14.40;99.90
13211;DHT22;6670;51.53087800;7.23266500;2022-10-16T02:20:59;14.50;99.90
13211;DHT22;6670;51.53087800;7.23266500;2022-10-16T02:23:34;14.50;99.90
13211;DHT22;6670;51.53087800;7.23266500;2022-10-16T02:26:06;14.50;99.90
13211;DHT22;6670;51.53087800;7.23266500;2022-10-16T02:28:40;14.50;99.90
13211;DHT22;6670;51.53087800;7.23266500;2022-10-16T02:31:11;14.50;99.90
13211;DHT22;6670;51.53087800;7.23266500;2022-10-16T02:33:40;14.50;99.90
13211;DHT22;6670;51.53087800;7.23266500;2022-10-16T02:36:09;14.50;99.90
13211;DHT22;6670;51.53087800;7.23266500;2022-10-16T02:38:38;14.60;99.90
13211;DHT22;6670;51.53087800;7.23266500;2022-10-16T02:41:06;14.60;99.90
13211;DHT22;6670;51.53087800;7.23266500;2022-10-16T02:43:35;14.60;99.90
13211;DHT22;6670;51.53087800;7.23266500;2022-10-16T02:46:03;14.60;99.90
13211;DHT22;6670;51.53087800;7.23266500;2022-10-16T02:48:30;14.60;99.90
13211;DHT22;6670;51.53087800;7.23266500;2022-10-16T02:50:57;14.60;99.90
13211;DHT22;6670;51.53087800;7.23266500;2022-10-16T02:53:25;14.60;99.90
13211;DHT22;6670;51.53087800;7.23266500;2022-10-16T02:55:52;14.60;99.90
13211;DHT22;6670;51.53087800;7.23266500;2022-10-16T02:58:20;14.60;99.90
13211;DHT22;6670;51.53087800;7.23266500;2022-10-16T03:00:49;14.60;99.90
13211;DHT22;6670;51.53087800;7.23266500;2022-10-16T03:03:16;14.60;99.90
13211;DHT22;6670;51.53087800;7.23266500;2022-10-16T03:05:44;14.60;99.90
13211;DHT22;6670;51.53087800;7.23266500;2022-10-16T03:08:11;14.60;99.90
13211;DHT22;6670;51.53087800;7.23266500;2022-10-16T03:10:48;14.60;99.90
13211;DHT22;6670;51.53087800;7.23266500;2022-10-16T03:13:16;14.60;99.90
13211;DHT22;6670;51.53087800;7.23266500;2022-10-16T03:15:43;14.60;99.90
13211;DHT22;6670;51.53087800;7.23266500;2022-10-16T03:18:12;14.60;99.90
13211;DHT22;6670;51.53087800;7.23266500;2022-10-16T03:20:40;14.60;99.90
13211;DHT22;6670;51.53087800;7.23266500;2022-10-16T03:23:07;14.60;99.90
13211;DHT22;6670;51.53087800;7.23266500;2022-10-16T03:25:34;14.60;99.90
13211;DHT22;6670;51.53087800;7.23266500;2022-10-16T03:28:02;14.70;99.90
13211;DHT22;6670;51.53087800;7.23266500;2022-10-16T03:30:30;14.70;99.90
13211;DHT22;6670;51.53087800;7.23266500;2022-10-16T03:32:57;14.70;99.90
13211;DHT22;6670;51.53087800;7.23266500;2022-10-16T03:35:26;14.70;99.90
13211;DHT22;6670;51.53087800;7.23266500;2022-10-16T03:37:53;14.70;99.90
13211;DHT22;6670;51.53087800;7.23266500;2022-10-16T03:40:21;14.70;99.90
13211;DHT22;6670;51.53087800;7.23266500;2022-10-16T03:42:48;14.70;99.90
13211;DHT22;6670;51.53087800;7.23266500;2022-10-16T03:45:16;14.70;99.90
13211;DHT22;6670;51.53087800;7.23266500;2022-10-16T03:47:43;14.70;99.90
13211;DHT22;6670;51.53087800;7.23266500;2022-10-16T03:50:10;14.60;99.90
13211;DHT22;6670;51.53087800;7.23266500;2022-10-16T03:52:39;14.70;99.90
13211;DHT22;6670;51.53087800;7.23266500;2022-10-16T03:55:07;14.70;99.90
13211;DHT22;6670;51.53087800;7.23266500;2022-10-16T03:57:35;14.60;99.90
13211;DHT22;6670;51.53087800;7.23266500;2022-10-16T04:00:03;14.60;99.90
13211;DHT22;6670;51.53087800;7.23266500;2022-10-16T04:02:38;14.60;99.90
13211;DHT22;6670;51.53087800;7.23266500;2022-10-16T04:05:06;14.60;99.90
13211;DHT22;6670;51.53087800;7.23266500;2022-10-16T04:07:34;14.60;99.90
13211;DHT22;6670;51.53087800;7.23266500;2022-10-16T04:10:04;14.50;99.90
13211;DHT22;6670;51.53087800;7.23266500;2022-10-16T04:12:31;14.50;99.90
13211;DHT22;6670;51.53087800;7.23266500;2022-10-16T04:14:59;14.50;99.90
13211;DHT22;6670;51.53087800;7.23266500;2022-10-16T04:17:26;14.50;99.90
13211;DHT22;6670;51.53087800;7.23266500;2022-10-16T04:19:53;14.50;99.90
13211;DHT22;6670;51.53087800;7.23266500;2022-10-16T04:22:21;14.50;99.90
13211;DHT22;6670;51.53087800;7.23266500;2022-10-16T04:24:48;14.50;99.90
13211;DHT22;6670;51.53087800;7.23266500;2022-10-16T04:27:17;14.50;99.90
13211;DHT22;6670;51.53087800;7.23266500;2022-10-16T04:29:44;14.50;99.90
13211;DHT22;6670;51.53087800;7.23266500;2022-10-16T04:32:12;14.50;99.90
13211;DHT22;6670;51.53087800;7.23266500;2022-10-16T04:34:39;14.50;99.90
13211;DHT22;6670;51.53087800;7.23266500;2022-10-16T04:37:07;14.50;99.90
13211;DHT22;6670;51.53087800;7.23266500;2022-10-16T04:39:34;14.50;99.90
13211;DHT22;6670;51.53087800;7.23266500;2022-10-16T04:42:02;14.50;99.90
13211;DHT22;6670;51.53087800;7.23266500;2022-10-16T04:44:31;14.40;99.90
13211;DHT22;6670;51.53087800;7.23266500;2022-10-16T04:46:59;14.40;99.90
13211;DHT22;6670;51.53087800;7.23266500;2022-10-16T04:49:26;14.40;99.90
13211;DHT22;6670;51.53087800;7.23266500;2022-10-16T04:51:53;14.40;99.90
13211;DHT22;6670;51.53087800;7.23266500;2022-10-16T04:54:21;14.40;99.90
13211;DHT22;6670;51.53087800;7.23266500;2022-10-16T04:56:48;14.40;99.90
13211;DHT22;6670;51.53087800;7.23266500;2022-10-16T04:59:18;14.40;99.90
13211;DHT22;6670;51.53087800;7.23266500;2022-10-16T05:01:47;14.40;99.90
13211;DHT22;6670;51.53087800;7.23266500;2022-10-16T05:04:15;14.40;99.90
13211;DHT22;6670;51.53087800;7.23266500;2022-10-16T05:06:42;14.30;99.90
13211;DHT22;6670;51.53087800;7.23266500;2022-10-16T05:09:10;14.30;99.90
13211;DHT22;6670;51.53087800;7.23266500;2022-10-16T05:11:37;14.30;99.90
13211;DHT22;6670;51.53087800;7.23266500;2022-10-16T05:14:05;14.30;99.90
13211;DHT22;6670;51.53087800;7.23266500;2022-10-16T05:16:32;14.40;99.90
13211;DHT22;6670;51.53087800;7.23266500;2022-10-16T05:19:01;14.30;99.90
13211;DHT22;6670;51.53087800;7.23266500;2022-10-16T05:21:28;14.40;99.90
13211;DHT22;6670;51.53087800;7.23266500;2022-10-16T05:23:56;14.40;99.90
13211;DHT22;6670;51.53087800;7.23266500;2022-10-16T05:26:23;14.30;99.90
13211;DHT22;6670;51.53087800;7.23266500;2022-10-16T05:28:51;14.40;99.90
13211;DHT22;6670;51.53087800;7.23266500;2022-10-16T05:31:21;14.40;99.90
13211;DHT22;6670;51.53087800;7.23266500;2022-10-16T05:33:48;14.40;99.90
13211;DHT22;6670;51.53087800;7.23266500;2022-10-16T05:36:17;14.40;99.90
13211;DHT22;6670;51.53087800;7.23266500;2022-10-16T05:38:45;14.40;99.90
13211;DHT22;6670;51.53087800;7.23266500;2022-10-16T05:41:12;14.40;99.90
13211;DHT22;6670;51.53087800;7.23266500;2022-10-16T05:43:39;14.40;99.90
13211;DHT22;6670;51.53087800;7.23266500;2022-10-16T05:46:09;14.40;99.90
13211;DHT22;6670;51.53087800;7.23266500;2022-10-16T05:48:40;14.40;99.90
13211;DHT22;6670;51.53087800;7.23266500;2022-10-16T05:54:29;14.40;99.90
13211;DHT22;6670;51.53087800;7.23266500;2022-10-16T05:57:05;14.40;99.90
13211;DHT22;6670;51.53087800;7.23266500;2022-10-16T05:59:33;14.30;99.90
13211;DHT22;6670;51.53087800;7.23266500;2022-10-16T06:02:19;14.30;99.90
13211;DHT22;6670;51.53087800;7.23266500;2022-10-16T06:05:08;14.40;99.90
13211;DHT22;6670;51.53087800;7.23266500;2022-10-16T06:07:38;14.30;99.90
13211;DHT22;6670;51.53087800;7.23266500;2022-10-16T06:10:13;14.30;99.90
13211;DHT22;6670;51.53087800;7.23266500;2022-10-16T06:12:40;14.40;99.90
13211;DHT22;6670;51.53087800;7.23266500;2022-10-16T06:15:08;14.30;99.90
13211;DHT22;6670;51.53087800;7.23266500;2022-10-16T06:17:36;14.30;99.90
13211;DHT22;6670;51.53087800;7.23266500;2022-10-16T06:20:04;14.30;99.90
13211;DHT22;6670;51.53087800;7.23266500;2022-10-16T06:22:32;14.30;99.90
13211;DHT22;6670;51.53087800;7.23266500;2022-10-16T06:24:59;14.30;99.90
13211;DHT22;6670;51.53087800;7.23266500;2022-10-16T06:27:28;14.30;99.90
13211;DHT22;6670;51.53087800;7.23266500;2022-10-16T06:29:59;14.40;99.90
13211;DHT22;6670;51.53087800;7.23266500;2022-10-16T06:32:27;14.30;99.90
13211;DHT22;6670;51.53087800;7.23266500;2022-10-16T06:34:54;14.30;99.90
13211;DHT22;6670;51.53087800;7.23266500;2022-10-16T06:37:22;14.30;99.90
13211;DHT22;6670;51.53087800;7.23266500;2022-10-16T06:39:51;14.30;99.90
13211;DHT22;6670;51.53087800;7.23266500;2022-10-16T06:42:19;14.30;99.90
13211;DHT22;6670;51.53087800;7.23266500;2022-10-16T06:44:49;14.40;99.90
13211;DHT22;6670;51.53087800;7.23266500;2022-10-16T06:47:16;14.70;99.90
13211;DHT22;6670;51.53087800;7.23266500;2022-10-16T06:49:44;14.90;99.90
13211;DHT22;6670;51.53087800;7.23266500;2022-10-16T06:52:11;14.70;99.90
13211;DHT22;6670;51.53087800;7.23266500;2022-10-16T06:54:39;14.60;99.90
13211;DHT22;6670;51.53087800;7.23266500;2022-10-16T06:57:06;14.50;99.90
13211;DHT22;6670;51.53087800;7.23266500;2022-10-16T06:59:34;14.50;99.90
13211;DHT22;6670;51.53087800;7.23266500;2022-10-16T07:02:02;14.50;99.90
13211;DHT22;6670;51.53087800;7.23266500;2022-10-16T07:04:30;14.50;99.90
13211;DHT22;6670;51.53087800;7.23266500;2022-10-16T07:06:57;14.50;99.90
13211;DHT22;6670;51.53087800;7.23266500;2022-10-16T07:09:27;14.50;99.90
13211;DHT22;6670;51.53087800;7.23266500;2022-10-16T07:11:54;14.50;99.90
13211;DHT22;6670;51.53087800;7.23266500;2022-10-16T07:14:22;14.50;99.90
13211;DHT22;6670;51.53087800;7.23266500;2022-10-16T07:16:49;14.60;99.90
13211;DHT22;6670;51.53087800;7.23266500;2022-10-16T07:19:18;14.60;99.90
13211;DHT22;6670;51.53087800;7.23266500;2022-10-16T07:21:45;14.60;99.90
13211;DHT22;6670;51.53087800;7.23266500;2022-10-16T07:24:15;14.70;99.90
13211;DHT22;6670;51.53087800;7.23266500;2022-10-16T07:26:44;14.70;99.90
13211;DHT22;6670;51.53087800;7.23266500;2022-10-16T07:29:13;14.70;99.90
13211;DHT22;6670;51.53087800;7.23266500;2022-10-16T07:31:41;14.80;99.90
13211;DHT22;6670;51.53087800;7.23266500;2022-10-16T07:34:10;14.70;99.90
13211;DHT22;6670;51.53087800;7.23266500;2022-10-16T07:36:39;14.80;99.90
13211;DHT22;6670;51.53087800;7.23266500;2022-10-16T07:39:06;14.80;99.90
13211;DHT22;6670;51.53087800;7.23266500;2022-10-16T07:41:33;14.80;99.90
13211;DHT22;6670;51.53087800;7.23266500;2022-10-16T07:44:03;14.90;99.90
13211;DHT22;6670;51.53087800;7.23266500;2022-10-16T07:46:31;14.90;99.90
13211;DHT22;6670;51.53087800;7.23266500;2022-10-16T07:49:02;15.00;99.90
13211;DHT22;6670;51.53087800;7.23266500;2022-10-16T07:51:30;15.10;99.90
13211;DHT22;6670;51.53087800;7.23266500;2022-10-16T07:54:00;15.20;99.90
13211;DHT22;6670;51.53087800;7.23266500;2022-10-16T07:56:32;15.30;99.90
13211;DHT22;6670;51.53087800;7.23266500;2022-10-16T07:59:01;15.40;99.90
13211;DHT22;6670;51.53087800;7.23266500;2022-10-16T08:01:29;15.40;99.90
13211;DHT22;6670;51.53087800;7.23266500;2022-10-16T08:03:57;15.50;99.90
13211;DHT22;6670;51.53087800;7.23266500;2022-10-16T08:06:35;15.50;99.90
13211;DHT22;6670;51.53087800;7.23266500;2022-10-16T08:09:04;15.60;99.90
13211;DHT22;6670;51.53087800;7.23266500;2022-10-16T08:11:32;15.60;99.90
13211;DHT22;6670;51.53087800;7.23266500;2022-10-16T08:14:00;15.70;99.90
13211;DHT22;6670;51.53087800;7.23266500;2022-10-16T08:16:27;15.70;99.90
13211;DHT22;6670;51.53087800;7.23266500;2022-10-16T08:18:55;15.80;99.90
13211;DHT22;6670;51.53087800;7.23266500;2022-10-16T08:21:23;15.80;99.90
13211;DHT22;6670;51.53087800;7.23266500;2022-10-16T08:23:52;15.90;99.90
13211;DHT22;6670;51.53087800;7.23266500;2022-10-16T08:26:22;15.90;99.90
13211;DHT22;6670;51.53087800;7.23266500;2022-10-16T08:28:52;16.00;99.90
13211;DHT22;6670;51.53087800;7.23266500;2022-10-16T08:31:20;16.00;99.90
13211;DHT22;6670;51.53087800;7.23266500;2022-10-16T08:33:48;15.90;99.90
13211;DHT22;6670;51.53087800;7.23266500;2022-10-16T08:36:30;16.00;99.90
13211;DHT22;6670;51.53087800;7.23266500;2022-10-16T08:38:57;16.00;99.90
13211;DHT22;6670;51.53087800;7.23266500;2022-10-16T08:41:55;16.10;99.90
13211;DHT22;6670;51.53087800;7.23266500;2022-10-16T08:44:51;16.00;99.90
13211;DHT22;6670;51.53087800;7.23266500;2022-10-16T08:47:24;16.10;99.90
13211;DHT22;6670;51.53087800;7.23266500;2022-10-16T08:49:57;16.10;99.90
13211;DHT22;6670;51.53087800;7.23266500;2022-10-16T08:52:34;16.20;99.90
13211;DHT22;6670;51.53087800;7.23266500;2022-10-16T08:55:19;16.20;99.90
13211;DHT22;6670;51.53087800;7.23266500;2022-10-16T08:58:19;16.30;99.90
13211;DHT22;6670;51.53087800;7.23266500;2022-10-16T09:00:48;16.50;99.90
13211;DHT22;6670;51.53087800;7.23266500;2022-10-16T09:03:24;16.40;99.90
13211;DHT22;6670;51.53087800;7.23266500;2022-10-16T09:06:10;16.40;99.90
13211;DHT22;6670;51.53087800;7.23266500;2022-10-16T09:08:47;16.50;99.90
13211;DHT22;6670;51.53087800;7.23266500;2022-10-16T09:11:36;16.50;99.90
13211;DHT22;6670;51.53087800;7.23266500;2022-10-16T09:14:33;16.60;99.90
13211;DHT22;6670;51.53087800;7.23266500;2022-10-16T09:17:18;16.70;99.90
13211;DHT22;6670;51.53087800;7.23266500;2022-10-16T09:19:53;16.70;99.90
13211;DHT22;6670;51.53087800;7.23266500;2022-10-16T09:22:27;16.70;99.90
13211;DHT22;6670;51.53087800;7.23266500;2022-10-16T09:25:00;16.70;99.90
13211;DHT22;6670;51.53087800;7.23266500;2022-10-16T09:27:28;16.60;99.90
13211;DHT22;6670;51.53087800;7.23266500;2022-10-16T09:29:56;16.80;99.90
13211;DHT22;6670;51.53087800;7.23266500;2022-10-16T09:32:30;16.90;99.90
13211;DHT22;6670;51.53087800;7.23266500;2022-10-16T09:35:03;16.80;99.90
13211;DHT22;6670;51.53087800;7.23266500;2022-10-16T09:37:31;16.80;99.90
13211;DHT22;6670;51.53087800;7.23266500;2022-10-16T09:39:58;16.90;99.90
13211;DHT22;6670;51.53087800;7.23266500;2022-10-16T09:42:30;17.10;99.90
13211;DHT22;6670;51.53087800;7.23266500;2022-10-16T09:45:00;17.20;99.90
13211;DHT22;6670;51.53087800;7.23266500;2022-10-16T09:47:29;17.10;99.90
13211;DHT22;6670;51.53087800;7.23266500;2022-10-16T09:49:59;17.10;99.90
13211;DHT22;6670;51.53087800;7.23266500;2022-10-16T09:52:28;17.20;99.90
13211;DHT22;6670;51.53087800;7.23266500;2022-10-16T09:54:57;17.30;99.90
13211;DHT22;6670;51.53087800;7.23266500;2022-10-16T09:57:26;17.30;99.90
13211;DHT22;6670;51.53087800;7.23266500;2022-10-16T09:59:55;17.30;99.90
13211;DHT22;6670;51.53087800;7.23266500;2022-10-16T10:02:29;17.50;99.90
13211;DHT22;6670;51.53087800;7.23266500;2022-10-16T10:05:17;17.40;99.90
13211;DHT22;6670;51.53087800;7.23266500;2022-10-16T10:07:45;17.40;99.90
13211;DHT22;6670;51.53087800;7.23266500;2022-10-16T10:10:20;17.60;99.90
13211;DHT22;6670;51.53087800;7.23266500;2022-10-16T10:12:48;17.80;99.90
13211;DHT22;6670;51.53087800;7.23266500;2022-10-16T10:15:15;17.80;99.90
13211;DHT22;6670;51.53087800;7.23266500;2022-10-16T10:17:49;17.90;99.90
13211;DHT22;6670;51.53087800;7.23266500;2022-10-16T10:20:25;17.80;99.90
13211;DHT22;6670;51.53087800;7.23266500;2022-10-16T10:22:55;17.70;99.90
13211;DHT22;6670;51.53087800;7.23266500;2022-10-16T10:25:34;17.90;99.90
13211;DHT22;6670;51.53087800;7.23266500;2022-10-16T10:28:25;17.80;99.90
13211;DHT22;6670;51.53087800;7.23266500;2022-10-16T10:31:03;17.70;99.90
13211;DHT22;6670;51.53087800;7.23266500;2022-10-16T10:33:41;17.70;99.90
13211;DHT22;6670;51.53087800;7.23266500;2022-10-16T10:36:28;17.80;99.90
13211;DHT22;6670;51.53087800;7.23266500;2022-10-16T10:38:58;18.00;99.90
13211;DHT22;6670;51.53087800;7.23266500;2022-10-16T10:41:40;18.00;99.90
13211;DHT22;6670;51.53087800;7.23266500;2022-10-16T10:44:19;18.00;99.90
13211;DHT22;6670;51.53087800;7.23266500;2022-10-16T10:46:51;18.00;99.90
13211;DHT22;6670;51.53087800;7.23266500;2022-10-16T10:49:43;18.10;99.90
13211;DHT22;6670;51.53087800;7.23266500;2022-10-16T10:52:28;18.00;99.90
13211;DHT22;6670;51.53087800;7.23266500;2022-10-16T10:55:05;18.20;99.90
13211;DHT22;6670;51.53087800;7.23266500;2022-10-16T10:57:41;18.40;99.90
13211;DHT22;6670;51.53087800;7.23266500;2022-10-16T11:04:29;18.20;99.90
13211;DHT22;6670;51.53087800;7.23266500;2022-10-16T11:07:04;18.50;99.90
13211;DHT22;6670;51.53087800;7.23266500;2022-10-16T11:09:36;18.60;99.90
13211;DHT22;6670;51.53087800;7.23266500;2022-10-16T11:12:09;18.70;99.90
13211;DHT22;6670;51.53087800;7.23266500;2022-10-16T11:14:49;18.80;99.90
13211;DHT22;6670;51.53087800;7.23266500;2022-10-16T11:17:23;19.00;99.90
13211;DHT22;6670;51.53087800;7.23266500;2022-10-16T11:19:54;18.90;99.90
13211;DHT22;6670;51.53087800;7.23266500;2022-10-16T11:22:27;19.20;99.90
13211;DHT22;6670;51.53087800;7.23266500;2022-10-16T11:25:02;19.40;99.90
13211;DHT22;6670;51.53087800;7.23266500;2022-10-16T11:27:37;19.60;99.90
13211;DHT22;6670;51.53087800;7.23266500;2022-10-16T11:30:14;20.00;99.90
13211;DHT22;6670;51.53087800;7.23266500;2022-10-16T11:32:53;20.00;99.90
13211;DHT22;6670;51.53087800;7.23266500;2022-10-16T11:35:37;19.90;99.90
13211;DHT22;6670;51.53087800;7.23266500;2022-10-16T11:38:14;19.70;99.90
13211;DHT22;6670;51.53087800;7.23266500;2022-10-16T11:40:45;19.90;99.90
13211;DHT22;6670;51.53087800;7.23266500;2022-10-16T11:43:17;19.90;99.90
13211;DHT22;6670;51.53087800;7.23266500;2022-10-16T11:45:50;19.40;99.90
13211;DHT22;6670;51.53087800;7.23266500;2022-10-16T11:48:26;19.30;99.90
13211;DHT22;6670;51.53087800;7.23266500;2022-10-16T11:50:58;19.40;99.90
13211;DHT22;6670;51.53087800;7.23266500;2022-10-16T11:53:39;19.70;99.90
13211;DHT22;6670;51.53087800;7.23266500;2022-10-16T11:56:12;19.70;99.90
13211;DHT22;6670;51.53087800;7.23266500;2022-10-16T11:58:50;19.40;99.90
13211;DHT22;6670;51.53087800;7.23266500;2022-10-16T12:01:22;19.20;99.90
13211;DHT22;6670;51.53087800;7.23266500;2022-10-16T12:06:44;19.70;99.90
13211;DHT22;6670;51.53087800;7.23266500;2022-10-16T12:09:20;19.40;99.90
13211;DHT22;6670;51.53087800;7.23266500;2022-10-16T12:11:49;19.40;99.90
13211;DHT22;6670;51.53087800;7.23266500;2022-10-16T12:14:33;19.30;99.90
13211;DHT22;6670;51.53087800;7.23266500;2022-10-16T12:17:03;19.80;99.90
13211;DHT22;6670;51.53087800;7.23266500;2022-10-16T12:19:32;19.80;99.10
13211;DHT22;6670;51.53087800;7.23266500;2022-10-16T12:22:01;20.00;98.60
13211;DHT22;6670;51.53087800;7.23266500;2022-10-16T12:24:35;20.40;98.30
13211;DHT22;6670;51.53087800;7.23266500;2022-10-16T12:27:05;20.70;98.10
13211;DHT22;6670;51.53087800;7.23266500;2022-10-16T12:29:36;21.20;97.30
13211;DHT22;6670;51.53087800;7.23266500;2022-10-16T12:32:20;21.30;95.70
13211;DHT22;6670;51.53087800;7.23266500;2022-10-16T12:34:50;21.20;96.40
13211;DHT22;6670;51.53087800;7.23266500;2022-10-16T12:37:21;22.30;95.40
13211;DHT22;6670;51.53087800;7.23266500;2022-10-16T12:39:52;21.60;92.80
13211;DHT22;6670;51.53087800;7.23266500;2022-10-16T12:42:23;21.40;94.30
13211;DHT22;6670;51.53087800;7.23266500;2022-10-16T12:44:57;21.20;94.60
13211;DHT22;6670;51.53087800;7.23266500;2022-10-16T12:47:36;21.40;95.00
13211;DHT22;6670;51.53087800;7.23266500;2022-10-16T12:50:27;21.50;93.50
13211;DHT22;6670;51.53087800;7.23266500;2022-10-16T12:52:54;21.00;93.90
13211;DHT22;6670;51.53087800;7.23266500;2022-10-16T12:55:24;20.60;94.60
13211;DHT22;6670;51.53087800;7.23266500;2022-10-16T12:58:06;20.30;95.10
13211;DHT22;6670;51.53087800;7.23266500;2022-10-16T13:00:41;20.00;96.10
13211;DHT22;6670;51.53087800;7.23266500;2022-10-16T13:03:43;20.10;96.40
13211;DHT22;6670;51.53087800;7.23266500;2022-10-16T13:06:22;20.30;96.30
13211;DHT22;6670;51.53087800;7.23266500;2022-10-16T13:09:07;21.00;95.90
13211;DHT22;6670;51.53087800;7.23266500;2022-10-16T13:11:59;21.10;94.80
13211;DHT22;6670;51.53087800;7.23266500;2022-10-16T13:14:42;21.20;95.00
13211;DHT22;6670;51.53087800;7.23266500;2022-10-16T13:17:20;21.40;94.20
13211;DHT22;6670;51.53087800;7.23266500;2022-10-16T13:19:57;21.30;94.20
13211;DHT22;6670;51.53087800;7.23266500;2022-10-16T13:22:30;21.90;92.90
13211;DHT22;6670;51.53087800;7.23266500;2022-10-16T13:25:14;21.70;92.10
13211;DHT22;6670;51.53087800;7.23266500;2022-10-16T13:27:53;20.60;93.50
13211;DHT22;6670;51.53087800;7.23266500;2022-10-16T13:30:23;21.00;94.90
13211;DHT22;6670;51.53087800;7.23266500;2022-10-16T13:32:57;21.30;93.80
13211;DHT22;6670;51.53087800;7.23266500;2022-10-16T13:35:27;21.80;92.40
13211;DHT22;6670;51.53087800;7.23266500;2022-10-16T13:38:08;22.00;93.10
13211;DHT22;6670;51.53087800;7.23266500;2022-10-16T13:40:48;22.80;91.60
13211;DHT22;6670;51.53087800;7.23266500;2022-10-16T13:43:19;23.70;91.40
13211;DHT22;6670;51.53087800;7.23266500;2022-10-16T13:45:58;24.30;85.70
13211;DHT22;6670;51.53087800;7.23266500;2022-10-16T13:48:26;22.50;89.30
13211;DHT22;6670;51.53087800;7.23266500;2022-10-16T13:51:05;22.30;90.40
13211;DHT22;6670;51.53087800;7.23266500;2022-10-16T13:53:34;22.40;89.90
13211;DHT22;6670;51.53087800;7.23266500;2022-10-16T13:56:04;21.60;91.30
13211;DHT22;6670;51.53087800;7.23266500;2022-10-16T13:58:33;21.30;91.90
13211;DHT22;6670;51.53087800;7.23266500;2022-10-16T14:01:02;21.00;91.60
13211;DHT22;6670;51.53087800;7.23266500;2022-10-16T14:03:32;20.90;92.20
13211;DHT22;6670;51.53087800;7.23266500;2022-10-16T14:06:03;20.90;92.50
13211;DHT22;6670;51.53087800;7.23266500;2022-10-16T14:08:31;20.80;93.00
13211;DHT22;6670;51.53087800;7.23266500;2022-10-16T14:11:00;20.80;93.00
13211;DHT22;6670;51.53087800;7.23266500;2022-10-16T14:13:34;21.10;92.90